createdAt,value
2022-10-23T00:01:17.196Z,97947.18
2022-10-23T00:03:46.238Z,97943.77
2022-10-23T00:06:15.048Z,97939.08
2022-10-23T00:08:43.773Z,97939.85
2022-10-23T00:11:13.369Z,97940.45
2022-10-23T00:13:41.747Z,97937.15
2022-10-23T00:16:09.918Z,97935.61
2022-10-23T00:18:38.603Z,97936.13
2022-10-23T00:21:08.046Z,97938.31
2022-10-23T00:23:36.466Z,97941.42
2022-10-23T00:26:04.702Z,97942.41
2022-10-23T00:28:32.633Z,97941.83
2022-10-23T00:31:05.275Z,97949.44
2022-10-23T00:33:33.384Z,97951.72
2022-10-23T00:36:03.687Z,97954.04
2022-10-23T00:38:31.787Z,97958.63
2022-10-23T00:41:00.263Z,97965.98
2022-10-23T00:43:30.017Z,97971.30
2022-10-23T00:45:58.030Z,97965.58
2022-10-23T00:48:26.912Z,97966.95
2022-10-23T00:50:55.120Z,97967.28
2022-10-23T00:53:23.375Z,97970.84
2022-10-23T00:55:54.057Z,97969.92
2022-10-23T00:58:22.394Z,97965.70
2022-10-23T01:00:52.197Z,97971.88
2022-10-23T01:03:23.277Z,97975.35
2022-10-23T01:05:51.207Z,97986.91
2022-10-23T01:08:21.958Z,97993.02
2022-10-23T01:10:58.962Z,97990.40
2022-10-23T01:13:37.233Z,98002.61
2022-10-23T01:16:26.015Z,98007.79
2022-10-23T01:19:09.898Z,98007.66
2022-10-23T01:21:53.003Z,98016.67
2022-10-23T01:24:27.208Z,98016.77
2022-10-23T01:27:01.723Z,98019.95
2022-10-23T01:29:35.912Z,98020.33
2022-10-23T01:32:12.921Z,98020.52
2022-10-23T01:34:58.751Z,98026.98
2022-10-23T01:37:32.582Z,98034.31
2022-10-23T01:40:05.735Z,98034.31
2022-10-23T01:42:37.795Z,98026.63
2022-10-23T01:45:10.165Z,98027.04
2022-10-23T01:47:48.111Z,98030.33
2022-10-23T01:50:19.892Z,98037.24
2022-10-23T01:52:49.238Z,98033.38
2022-10-23T01:55:17.838Z,98034.59
2022-10-23T01:57:48.058Z,98048.20
2022-10-23T02:00:17.930Z,98049.95
2022-10-23T02:02:56.183Z,98050.16
2022-10-23T02:05:30.600Z,98051.90
2022-10-23T02:07:59.416Z,98056.15
2022-10-23T02:10:33.955Z,98063.48
2022-10-23T02:13:05.051Z,98065.39
2022-10-23T02:15:45.411Z,98059.06
2022-10-23T02:18:36.850Z,98051.02
2022-10-23T02:21:10.575Z,98056.34
2022-10-23T02:23:50.385Z,98061.09
2022-10-23T02:26:25.705Z,98072.05
2022-10-23T02:31:33.943Z,98080.42
2022-10-23T02:34:01.958Z,98092.39
2022-10-23T02:36:29.990Z,98101.09
2022-10-23T02:38:58.754Z,98109.73
2022-10-23T02:41:29.401Z,98114.70
2022-10-23T02:44:09.696Z,98115.95
2022-10-23T02:46:56.565Z,98114.16
2022-10-23T02:49:30.876Z,98120.27
2022-10-23T02:51:58.853Z,98128.94
2022-10-23T02:54:30.416Z,98139.42
2022-10-23T02:57:03.692Z,98139.15
2022-10-23T02:59:37.610Z,98133.83
2022-10-23T03:02:35.278Z,98129.73
2022-10-23T03:05:04.574Z,98139.63
2022-10-23T03:07:34.661Z,98142.56
2022-10-23T03:10:07.027Z,98152.28
2022-10-23T03:12:35.033Z,98155.24
2022-10-23T03:15:03.444Z,98157.27
2022-10-23T03:17:31.383Z,98164.74
2022-10-23T03:20:00.776Z,98169.58
2022-10-23T03:22:28.853Z,98163.52
2022-10-23T03:24:57.131Z,98163.77
2022-10-23T03:27:25.152Z,98164.81
2022-10-23T03:29:55.832Z,98155.95
2022-10-23T03:32:23.913Z,98166.53
2022-10-23T03:34:51.966Z,98165.18
2022-10-23T03:37:19.979Z,98172.25
2022-10-23T03:39:48.003Z,98173.54
2022-10-23T03:42:16.004Z,98171.15
2022-10-23T03:44:43.915Z,98177.77
2022-10-23T03:47:12.316Z,98183.52
2022-10-23T03:49:40.395Z,98187.91
2022-10-23T03:52:08.257Z,98184.56
2022-10-23T03:54:36.255Z,98185.64
2022-10-23T03:57:04.059Z,98185.52
2022-10-23T03:59:32.261Z,98184.63
2022-10-23T04:02:00.704Z,98179.83
2022-10-23T04:04:29.093Z,98184.44
2022-10-23T04:06:57.139Z,98195.98
2022-10-23T04:09:25.471Z,98198.52
2022-10-23T04:11:55.672Z,98195.34
2022-10-23T04:14:26.943Z,98190.90
2022-10-23T04:16:55.206Z,98193.73
2022-10-23T04:19:23.277Z,98202.92
2022-10-23T04:21:51.124Z,98204.84
2022-10-23T04:24:18.998Z,98203.09
2022-10-23T04:26:46.830Z,98205.70
2022-10-23T04:29:14.931Z,98204.63
2022-10-23T04:31:42.796Z,98206.52
2022-10-23T04:34:11.106Z,98205.35
2022-10-23T04:36:38.975Z,98202.58
2022-10-23T04:39:11.369Z,98209.30
2022-10-23T04:41:39.191Z,98211.06
2022-10-23T04:44:07.686Z,98205.19
2022-10-23T04:46:39.004Z,98203.02
2022-10-23T04:49:07.375Z,98210.42
2022-10-23T04:51:51.008Z,98214.73
2022-10-23T04:54:42.351Z,98216.99
2022-10-23T04:57:24.245Z,98219.38
2022-10-23T05:00:00.306Z,98223.27
2022-10-23T05:02:28.587Z,98227.13
2022-10-23T05:04:56.655Z,98235.69
2022-10-23T05:07:36.730Z,98237.21
2022-10-23T05:10:24.939Z,98238.75
2022-10-23T05:13:13.226Z,98244.48
2022-10-23T05:18:26.734Z,98251.34
2022-10-23T05:20:57.494Z,98256.39
2022-10-23T05:23:26.871Z,98261.86
2022-10-23T05:25:58.596Z,98264.27
2022-10-23T05:28:26.493Z,98268.42
2022-10-23T05:30:54.850Z,98271.38
2022-10-23T05:33:27.342Z,98273.59
2022-10-23T05:35:55.718Z,98274.79
2022-10-23T05:38:26.459Z,98277.05
2022-10-23T05:40:54.790Z,98277.13
2022-10-23T05:43:26.189Z,98281.12
2022-10-23T05:46:04.195Z,98284.07
2022-10-23T05:48:50.378Z,98288.22
2022-10-23T05:51:37.913Z,98290.78
2022-10-23T05:54:21.531Z,98295.58
2022-10-23T05:57:18.810Z,98296.98
2022-10-23T05:59:51.139Z,98306.84
2022-10-23T06:02:41.446Z,98309.33
2022-10-23T06:05:21.099Z,98318.63
2022-10-23T06:08:11.876Z,98328.21
2022-10-23T06:10:39.871Z,98326.21
2022-10-23T06:13:09.072Z,98327.48
2022-10-23T06:15:38.482Z,98334.25
2022-10-23T06:18:14.737Z,98339.82
2022-10-23T06:20:53.184Z,98338.91
2022-10-23T06:23:25.284Z,98340.14
2022-10-23T06:26:17.037Z,98343.54
2022-10-23T06:28:57.868Z,98356.36
2022-10-23T06:31:28.381Z,98361.67
2022-10-23T06:33:59.364Z,98363.00
2022-10-23T06:36:28.136Z,98363.66
2022-10-23T06:39:16.375Z,98363.73
2022-10-23T06:41:59.224Z,98368.98
2022-10-23T06:45:00.387Z,98362.14
2022-10-23T06:47:50.660Z,98365.68
2022-10-23T06:50:21.292Z,98362.27
2022-10-23T06:52:49.729Z,98362.11
2022-10-23T06:55:18.867Z,98366.27
2022-10-23T06:57:47.306Z,98371.06
2022-10-23T07:00:16.013Z,98375.52
2022-10-23T07:02:50.145Z,98379.94
2022-10-23T07:05:18.184Z,98383.31
2022-10-23T07:07:46.348Z,98388.63
2022-10-23T07:10:17.943Z,98387.94
2022-10-23T07:12:49.288Z,98399.27
2022-10-23T07:15:35.797Z,98399.65
2022-10-23T07:18:04.680Z,98400.82
2022-10-23T07:20:44.322Z,98409.21
2022-10-23T07:23:12.932Z,98402.94
2022-10-23T07:25:41.182Z,98398.87
2022-10-23T07:28:09.973Z,98388.67
2022-10-23T07:30:38.272Z,98385.06
2022-10-23T07:33:06.933Z,98390.11
2022-10-23T07:35:42.549Z,98391.96
2022-10-23T07:38:14.218Z,98392.33
2022-10-23T07:40:45.551Z,98395.55
2022-10-23T07:43:17.543Z,98399.67
2022-10-23T07:45:49.621Z,98404.65
2022-10-23T07:48:25.564Z,98406.63
2022-10-23T07:51:01.729Z,98416.96
2022-10-23T07:53:29.969Z,98423.02
2022-10-23T07:56:23.378Z,98421.23
2022-10-23T07:59:12.326Z,98420.71
2022-10-23T08:01:43.081Z,98422.90
2022-10-23T08:04:11.392Z,98420.94
2022-10-23T08:06:48.322Z,98419.58
2022-10-23T08:09:16.404Z,98421.09
2022-10-23T08:11:45.052Z,98425.83
2022-10-23T08:14:16.157Z,98426.04
2022-10-23T08:16:44.238Z,98422.13
2022-10-23T08:19:32.694Z,98431.86
2022-10-23T08:22:04.000Z,98428.69
2022-10-23T08:24:32.070Z,98426.92
2022-10-23T08:27:00.111Z,98430.93
2022-10-23T08:29:28.748Z,98431.71
2022-10-23T08:31:57.703Z,98432.39
2022-10-23T08:34:31.659Z,98441.95
2022-10-23T08:37:00.359Z,98445.27
2022-10-23T08:39:29.073Z,98449.48
2022-10-23T08:42:22.312Z,98446.41
2022-10-23T08:44:55.220Z,98444.05
2022-10-23T08:47:44.219Z,98445.34
2022-10-23T08:50:35.258Z,98444.95
2022-10-23T08:53:15.552Z,98444.30
2022-10-23T08:55:45.444Z,98442.20
2022-10-23T08:58:23.671Z,98443.27
2022-10-23T09:00:51.797Z,98446.86
2022-10-23T09:03:20.135Z,98448.58
2022-10-23T09:06:08.909Z,98441.47
2022-10-23T09:08:43.497Z,98442.16
2022-10-23T09:11:20.256Z,98437.13
2022-10-23T09:14:01.460Z,98439.23
2022-10-23T09:16:41.586Z,98446.85
2022-10-23T09:19:12.198Z,98446.58
2022-10-23T09:21:40.510Z,98451.17
2022-10-23T09:24:18.926Z,98447.86
2022-10-23T09:26:50.550Z,98450.58
2022-10-23T09:29:27.763Z,98457.57
2022-10-23T09:31:57.421Z,98457.73
2022-10-23T09:34:26.669Z,98449.49
2022-10-23T09:37:02.115Z,98446.29
2022-10-23T09:39:31.415Z,98455.65
2022-10-23T09:42:02.475Z,98458.10
2022-10-23T09:44:31.528Z,98454.72
2022-10-23T09:47:01.463Z,98457.23
2022-10-23T09:49:31.275Z,98459.42
2022-10-23T09:52:08.462Z,98456.09
2022-10-23T09:54:38.289Z,98455.79
2022-10-23T09:57:15.948Z,98457.56
2022-10-23T09:59:43.879Z,98460.58
2022-10-23T10:02:27.077Z,98456.64
2022-10-23T10:05:23.921Z,98459.09
2022-10-23T10:08:10.829Z,98458.57
2022-10-23T10:10:41.630Z,98464.46
2022-10-23T10:13:22.297Z,98461.92
2022-10-23T10:15:53.468Z,98454.05
2022-10-23T10:18:28.777Z,98450.96
2022-10-23T10:20:59.543Z,98451.31
2022-10-23T10:23:27.410Z,98447.52
2022-10-23T10:26:13.920Z,98445.10
2022-10-23T10:28:42.024Z,98444.70
2022-10-23T10:31:10.221Z,98450.45
2022-10-23T10:33:38.215Z,98452.90
2022-10-23T10:38:57.532Z,98458.76
2022-10-23T10:41:28.658Z,98454.48
2022-10-23T10:44:15.669Z,98450.19
2022-10-23T10:46:46.580Z,98447.43
2022-10-23T10:49:29.064Z,98448.58
2022-10-23T10:52:15.944Z,98449.95
2022-10-23T10:54:53.648Z,98448.96
2022-10-23T10:57:21.497Z,98442.77
2022-10-23T10:59:51.336Z,98438.66
2022-10-23T11:02:23.886Z,98431.23
2022-10-23T11:04:56.356Z,98436.55
2022-10-23T11:07:28.053Z,98447.98
2022-10-23T11:09:59.092Z,98450.64
2022-10-23T11:12:27.795Z,98456.45
2022-10-23T11:14:56.731Z,98453.79
2022-10-23T11:17:39.264Z,98450.42
2022-10-23T11:20:10.079Z,98456.58
2022-10-23T11:22:53.403Z,98449.35
2022-10-23T11:25:21.350Z,98442.62
2022-10-23T11:28:10.305Z,98439.36
2022-10-23T11:31:12.232Z,98449.02
2022-10-23T11:33:42.599Z,98451.12
2022-10-23T11:36:19.555Z,98445.06
2022-10-23T11:38:49.758Z,98447.58
2022-10-23T11:41:22.351Z,98449.09
2022-10-23T11:43:55.607Z,98442.74
2022-10-23T11:46:23.662Z,98435.59
2022-10-23T11:48:52.330Z,98436.08
2022-10-23T11:51:27.688Z,98442.72
2022-10-23T11:54:06.100Z,98441.92
2022-10-23T11:56:34.476Z,98439.74
2022-10-23T11:59:21.185Z,98443.02
2022-10-23T12:01:50.817Z,98440.52
2022-10-23T12:04:22.495Z,98443.58
2022-10-23T12:07:00.073Z,98449.83
2022-10-23T12:09:37.846Z,98452.20
2022-10-23T12:12:06.013Z,98451.30
2022-10-23T12:14:35.830Z,98447.92
2022-10-23T12:17:19.154Z,98449.46
2022-10-23T12:19:48.822Z,98444.97
2022-10-23T12:22:17.410Z,98445.67
2022-10-23T12:24:51.530Z,98439.20
2022-10-23T12:27:31.922Z,98442.98
2022-10-23T12:30:18.626Z,98445.35
2022-10-23T12:33:06.767Z,98447.58
2022-10-23T12:35:48.979Z,98443.76
2022-10-23T12:38:16.961Z,98439.58
2022-10-23T12:40:45.514Z,98441.27
2022-10-23T12:43:23.733Z,98441.64
2022-10-23T12:45:52.315Z,98440.09
2022-10-23T12:48:22.128Z,98443.13
2022-10-23T12:50:53.685Z,98443.49
2022-10-23T12:53:23.395Z,98446.84
2022-10-23T12:55:54.810Z,98443.43
2022-10-23T12:58:30.237Z,98446.70
2022-10-23T13:01:02.069Z,98445.54
2022-10-23T13:03:31.892Z,98450.19
2022-10-23T13:06:04.702Z,98450.85
2022-10-23T13:08:35.161Z,98451.89
2022-10-23T13:11:22.267Z,98451.70
2022-10-23T13:13:51.140Z,98447.16
2022-10-23T13:16:21.432Z,98443.68
2022-10-23T13:18:49.660Z,98439.40
2022-10-23T13:21:24.464Z,98441.22
2022-10-23T13:23:52.980Z,98446.93
2022-10-23T13:26:25.762Z,98450.55
2022-10-23T13:28:53.933Z,98452.86
2022-10-23T13:31:21.869Z,98452.30
2022-10-23T13:33:54.762Z,98457.10
2022-10-23T13:36:24.264Z,98454.58
2022-10-23T13:39:01.682Z,98453.95
2022-10-23T13:41:35.815Z,98458.75
2022-10-23T13:44:04.553Z,98465.56
2022-10-23T13:46:32.903Z,98464.77
2022-10-23T13:49:00.927Z,98463.51
2022-10-23T13:51:30.537Z,98457.94
2022-10-23T13:53:59.013Z,98456.09
2022-10-23T13:56:27.905Z,98457.80
2022-10-23T13:58:55.874Z,98458.92
2022-10-23T14:01:26.402Z,98456.53
2022-10-23T14:03:55.117Z,98458.23
2022-10-23T14:06:23.773Z,98456.86
2022-10-23T14:08:52.359Z,98456.70
2022-10-23T14:11:20.324Z,98457.30
2022-10-23T14:13:48.876Z,98457.77
2022-10-23T14:16:18.146Z,98455.61
2022-10-23T14:18:46.177Z,98454.35
2022-10-23T14:21:15.476Z,98452.42
2022-10-23T14:23:43.553Z,98453.79
2022-10-23T14:26:16.855Z,98453.70
2022-10-23T14:28:44.857Z,98458.10
2022-10-23T14:31:14.012Z,98460.67
2022-10-23T14:33:41.979Z,98458.88
2022-10-23T14:36:10.497Z,98453.52
2022-10-23T14:38:38.426Z,98447.18
2022-10-23T14:41:10.828Z,98441.81
2022-10-23T14:43:39.403Z,98442.03
2022-10-23T14:46:11.722Z,98442.61
2022-10-23T14:48:40.130Z,98441.04
2022-10-23T14:51:16.107Z,98437.83
2022-10-23T14:53:44.159Z,98434.23
2022-10-23T14:56:11.996Z,98436.43
2022-10-23T14:58:39.943Z,98441.49
2022-10-23T15:01:08.823Z,98442.02
2022-10-23T15:03:37.415Z,98440.05
2022-10-23T15:06:06.972Z,98442.34
2022-10-23T15:08:35.654Z,98446.02
2022-10-23T15:11:06.626Z,98445.31
2022-10-23T15:13:37.057Z,98445.27
2022-10-23T15:16:06.122Z,98443.56
2022-10-23T15:21:09.734Z,98449.64
2022-10-23T15:23:40.204Z,98455.77
2022-10-23T15:26:10.446Z,98456.33
2022-10-23T15:28:38.553Z,98458.97
2022-10-23T15:31:06.828Z,98455.96
2022-10-23T15:33:34.999Z,98456.41
2022-10-23T15:36:03.033Z,98459.96
2022-10-23T15:38:31.208Z,98466.70
2022-10-23T15:41:13.616Z,98466.09
2022-10-23T15:43:41.653Z,98473.19
2022-10-23T15:46:09.633Z,98475.71
2022-10-23T15:48:37.657Z,98479.90
2022-10-23T15:51:05.697Z,98487.23
2022-10-23T15:53:33.652Z,98486.24
2022-10-23T15:56:01.768Z,98489.02
2022-10-23T15:58:29.765Z,98493.80
2022-10-23T16:00:57.900Z,98498.36
2022-10-23T16:03:26.187Z,98502.77
2022-10-23T16:05:54.050Z,98507.36
2022-10-23T16:08:22.837Z,98506.69
2022-10-23T16:10:50.596Z,98505.81
2022-10-23T16:13:18.386Z,98508.13
2022-10-23T16:15:46.542Z,98514.46
2022-10-23T16:18:16.247Z,98511.17
2022-10-23T16:20:44.218Z,98504.73
2022-10-23T16:23:12.215Z,98503.92
2022-10-23T16:25:40.155Z,98499.64
2022-10-23T16:28:08.323Z,98500.39
2022-10-23T16:30:40.289Z,98499.51
2022-10-23T16:33:08.459Z,98503.52
2022-10-23T16:35:37.149Z,98505.98
2022-10-23T16:38:08.901Z,98514.89
2022-10-23T16:40:36.769Z,98514.52
2022-10-23T16:43:24.091Z,98520.83
2022-10-23T16:46:08.753Z,98525.21
2022-10-23T16:48:36.904Z,98530.95
2022-10-23T16:51:05.734Z,98533.06
2022-10-23T16:53:33.886Z,98534.25
2022-10-23T16:56:04.202Z,98537.80
2022-10-23T16:58:32.794Z,98543.52
2022-10-23T17:01:02.408Z,98543.83
2022-10-23T17:03:30.691Z,98540.70
2022-10-23T17:06:04.158Z,98550.14
2022-10-23T17:08:34.681Z,98549.89
2022-10-23T17:11:10.632Z,98548.74
2022-10-23T17:13:40.469Z,98551.47
2022-10-23T17:16:10.616Z,98553.83
2022-10-23T17:18:42.874Z,98556.73
2022-10-23T17:21:13.116Z,98558.83
2022-10-23T17:23:41.764Z,98559.20
2022-10-23T17:26:10.904Z,98555.45
2022-10-23T17:28:42.579Z,98553.73
2022-10-23T17:31:14.238Z,98555.69
2022-10-23T17:33:42.444Z,98556.55
2022-10-23T17:36:10.950Z,98550.33
2022-10-23T17:38:39.827Z,98548.24
2022-10-23T17:41:08.414Z,98549.04
2022-10-23T17:43:36.730Z,98546.10
2022-10-23T17:46:05.556Z,98546.52
2022-10-23T17:48:34.352Z,98540.13
2022-10-23T17:51:03.540Z,98540.23
2022-10-23T17:53:31.562Z,98537.98
2022-10-23T17:56:01.223Z,98534.71
2022-10-23T17:58:29.302Z,98539.55
2022-10-23T18:00:57.313Z,98537.49
2022-10-23T18:03:25.284Z,98538.34
2022-10-23T18:05:53.330Z,98536.80
2022-10-23T18:08:21.102Z,98530.86
2022-10-23T18:10:49.335Z,98531.11
2022-10-23T18:13:17.614Z,98528.45
2022-10-23T18:15:45.396Z,98527.13
2022-10-23T18:18:13.240Z,98532.15
2022-10-23T18:20:42.066Z,98531.48
2022-10-23T18:23:09.922Z,98532.27
2022-10-23T18:25:42.188Z,98528.14
2022-10-23T18:28:10.130Z,98522.94
2022-10-23T18:33:11.176Z,98521.92
2022-10-23T18:35:38.967Z,98523.20
2022-10-23T18:38:07.408Z,98522.67
2022-10-23T18:40:36.198Z,98519.88
2022-10-23T18:43:07.008Z,98515.21
2022-10-23T18:45:37.583Z,98512.36
2022-10-23T18:48:05.774Z,98510.77
2022-10-23T18:50:36.255Z,98509.85
2022-10-23T18:53:04.455Z,98512.16
2022-10-23T18:58:04.999Z,98512.92
2022-10-23T19:00:33.173Z,98510.36
2022-10-23T19:03:01.021Z,98507.52
2022-10-23T19:05:28.847Z,98508.14
2022-10-23T19:07:56.723Z,98505.81
2022-10-23T19:10:26.845Z,98509.28
2022-10-23T19:12:54.838Z,98512.64
2022-10-23T19:15:22.970Z,98514.17
2022-10-23T19:17:54.064Z,98510.77
2022-10-23T19:20:22.558Z,98505.59
2022-10-23T19:22:51.852Z,98499.34
2022-10-23T19:25:21.665Z,98493.20
2022-10-23T19:27:49.732Z,98490.27
2022-10-23T19:30:21.905Z,98493.11
2022-10-23T19:32:51.234Z,98495.00
2022-10-23T19:35:20.606Z,98496.71
2022-10-23T19:37:48.677Z,98495.60
2022-10-23T19:40:16.724Z,98498.41
2022-10-23T19:42:44.614Z,98501.41
2022-10-23T19:45:13.962Z,98504.56
2022-10-23T19:47:42.745Z,98512.36
2022-10-23T19:50:10.873Z,98518.06
2022-10-23T19:52:39.247Z,98511.77
2022-10-23T19:55:08.972Z,98514.76
2022-10-23T19:57:37.270Z,98515.05
2022-10-23T20:00:06.603Z,98512.19
2022-10-23T20:02:38.364Z,98511.39
2022-10-23T20:05:06.860Z,98508.91
2022-10-23T20:07:36.090Z,98511.48
2022-10-23T20:10:06.037Z,98505.70
2022-10-23T20:12:34.703Z,98504.73
2022-10-23T20:15:02.824Z,98499.52
2022-10-23T20:17:31.010Z,98494.29
2022-10-23T20:19:58.978Z,98493.45
2022-10-23T20:22:27.018Z,98500.60
2022-10-23T20:24:54.875Z,98504.89
2022-10-23T20:27:23.024Z,98503.73
2022-10-23T20:29:50.952Z,98502.03
2022-10-23T20:32:18.873Z,98497.70
2022-10-23T20:34:46.789Z,98503.98
2022-10-23T20:37:14.726Z,98508.88
2022-10-23T20:39:43.463Z,98509.49
2022-10-23T20:42:11.588Z,98507.48
2022-10-23T20:44:39.525Z,98505.02
2022-10-23T20:47:07.511Z,98502.58
2022-10-23T20:49:35.386Z,98506.52
2022-10-23T20:52:03.587Z,98503.52
2022-10-23T20:54:32.010Z,98501.27
2022-10-23T20:56:59.935Z,98505.91
2022-10-23T20:59:28.024Z,98505.77
2022-10-23T21:01:56.488Z,98505.04
2022-10-23T21:04:26.726Z,98505.57
2022-10-23T21:07:11.368Z,98499.78
2022-10-23T21:09:40.168Z,98502.59
2022-10-23T21:12:09.233Z,98505.69
2022-10-23T21:14:37.330Z,98505.60
2022-10-23T21:17:05.592Z,98506.32
2022-10-23T21:19:33.483Z,98502.06
2022-10-23T21:22:01.330Z,98497.86
2022-10-23T21:24:29.181Z,98495.45
2022-10-23T21:26:57.336Z,98488.21
2022-10-23T21:29:25.152Z,98483.88
2022-10-23T21:31:54.442Z,98480.42
2022-10-23T21:34:22.983Z,98474.13
2022-10-23T21:39:38.914Z,98465.87
2022-10-23T21:42:06.981Z,98462.16
2022-10-23T21:44:35.145Z,98460.51
2022-10-23T21:47:03.636Z,98456.48
2022-10-23T21:49:32.106Z,98466.88
2022-10-23T21:52:01.824Z,98473.04
2022-10-23T21:54:29.792Z,98472.20
2022-10-23T21:56:57.760Z,98474.56
2022-10-23T21:59:28.887Z,98478.52
2022-10-23T22:02:00.337Z,98482.70
2022-10-23T22:04:28.331Z,98479.23
2022-10-23T22:06:56.395Z,98472.65
2022-10-23T22:09:24.641Z,98465.99
2022-10-23T22:11:53.412Z,98463.04
2022-10-23T22:14:22.988Z,98470.17
2022-10-23T22:16:52.276Z,98471.03
2022-10-23T22:19:21.712Z,98477.88
2022-10-23T22:21:50.659Z,98482.23
2022-10-23T22:24:19.087Z,98488.64
2022-10-23T22:26:48.428Z,98497.31
2022-10-23T22:29:18.329Z,98497.92
2022-10-23T22:31:49.688Z,98496.59
2022-10-23T22:34:27.045Z,98495.09
2022-10-23T22:37:09.078Z,98493.23
2022-10-23T22:39:37.150Z,98493.35
2022-10-23T22:42:05.449Z,98497.66
2022-10-23T22:44:33.508Z,98500.29
2022-10-23T22:47:01.359Z,98487.20
2022-10-23T22:49:29.327Z,98480.85
2022-10-23T22:51:57.151Z,98477.79
2022-10-23T22:54:25.266Z,98481.67
2022-10-23T22:56:53.555Z,98487.00
2022-10-23T22:59:21.466Z,98490.59
2022-10-23T23:01:50.432Z,98490.86
2022-10-23T23:07:08.130Z,98485.50
2022-10-23T23:09:43.114Z,98488.66
2022-10-23T23:12:12.275Z,98488.35
2022-10-23T23:14:40.652Z,98484.79
2022-10-23T23:17:09.032Z,98482.33
2022-10-23T23:19:36.813Z,98486.31
2022-10-23T23:22:05.066Z,98484.79
2022-10-23T23:24:33.153Z,98480.89
2022-10-23T23:27:01.230Z,98477.73
2022-10-23T23:29:29.761Z,98474.76
2022-10-23T23:31:57.957Z,98483.15
2022-10-23T23:34:25.820Z,98487.61
2022-10-23T23:36:53.898Z,98490.77
2022-10-23T23:39:21.765Z,98488.24
2022-10-23T23:41:49.629Z,98488.00
2022-10-23T23:44:17.883Z,98484.44
2022-10-23T23:46:45.907Z,98483.96
2022-10-23T23:49:13.864Z,98485.66
2022-10-23T23:51:42.116Z,98483.40
2022-10-23T23:54:10.185Z,98481.00
2022-10-23T23:56:38.130Z,98480.04
2022-10-23T23:59:06.531Z,98477.23
